createdAt,value
2022-09-24T00:01:43.970Z,160.83
2022-09-24T00:04:13.489Z,151.77
2022-09-24T00:06:43.359Z,125.43
2022-09-24T00:09:11.987Z,178.03
2022-09-24T00:11:40.597Z,234.40
2022-09-24T00:14:09.149Z,155.30
2022-09-24T00:16:37.427Z,178.23
2022-09-24T00:19:06.972Z,152.70
2022-09-24T00:21:36.671Z,216.57
2022-09-24T00:24:07.379Z,242.60
2022-09-24T00:26:49.907Z,200.77
2022-09-24T00:29:19.397Z,222.83
2022-09-24T00:31:47.774Z,230.77
2022-09-24T00:34:17.673Z,268.83
2022-09-24T00:36:46.230Z,235.93
2022-09-24T00:39:14.674Z,237.57
2022-09-24T00:41:47.242Z,227.70
2022-09-24T00:44:50.945Z,256.67
2022-09-24T00:47:29.955Z,275.87
2022-09-24T00:50:06.425Z,261.53
2022-09-24T00:52:35.118Z,201.87
2022-09-24T00:55:03.213Z,206.10
2022-09-24T00:57:31.747Z,159.47
2022-09-24T01:00:00.249Z,157.87
2022-09-24T01:02:28.394Z,230.33
2022-09-24T01:04:56.932Z,220.97
2022-09-24T01:07:26.532Z,241.03
2022-09-24T01:09:54.682Z,219.57
2022-09-24T01:12:28.419Z,284.60
2022-09-24T01:15:05.974Z,319.27
2022-09-24T01:17:38.277Z,242.40
2022-09-24T01:20:29.803Z,233.77
2022-09-24T01:23:15.401Z,216.57
2022-09-24T01:25:50.060Z,246.40
2022-09-24T01:28:35.356Z,321.97
2022-09-24T01:31:08.897Z,235.40
2022-09-24T01:33:37.716Z,226.10
2022-09-24T01:36:08.570Z,205.57
2022-09-24T01:38:39.857Z,275.67
2022-09-24T01:41:08.841Z,267.50
2022-09-24T01:43:38.491Z,273.50
2022-09-24T01:46:08.406Z,279.90
2022-09-24T01:48:37.550Z,235.60
2022-09-24T01:51:10.253Z,230.63
2022-09-24T01:53:42.629Z,150.67
2022-09-24T01:56:15.975Z,169.63
2022-09-24T01:58:48.671Z,156.93
2022-09-24T02:01:20.488Z,200.27
2022-09-24T02:03:52.718Z,185.67
2022-09-24T02:06:26.180Z,220.67
2022-09-24T02:08:57.616Z,284.53
2022-09-24T02:11:25.851Z,248.90
2022-09-24T02:13:56.983Z,260.27
2022-09-24T02:16:29.281Z,261.70
2022-09-24T02:18:59.321Z,188.33
2022-09-24T02:21:28.541Z,195.63
2022-09-24T02:24:06.673Z,186.73
2022-09-24T02:26:34.898Z,193.47
2022-09-24T02:29:03.133Z,206.17
2022-09-24T02:31:34.622Z,196.80
2022-09-24T02:34:23.667Z,215.40
2022-09-24T02:36:54.259Z,197.67
2022-09-24T02:39:22.637Z,218.47
2022-09-24T02:41:51.326Z,281.20
2022-09-24T02:44:19.797Z,181.30
2022-09-24T02:46:50.424Z,280.50
2022-09-24T02:49:18.883Z,251.07
2022-09-24T02:51:46.950Z,303.97
2022-09-24T02:54:15.006Z,216.57
2022-09-24T02:56:43.183Z,262.27
2022-09-24T02:59:12.282Z,325.53
2022-09-24T03:01:40.590Z,267.17
2022-09-24T03:04:10.452Z,339.77
2022-09-24T03:06:38.925Z,290.00
2022-09-24T03:09:07.141Z,243.90
2022-09-24T03:11:35.735Z,291.13
2022-09-24T03:14:03.712Z,281.27
2022-09-24T03:16:31.812Z,336.40
2022-09-24T03:18:59.874Z,328.30
2022-09-24T03:21:29.263Z,339.87
2022-09-24T03:23:57.218Z,306.57
2022-09-24T03:26:25.292Z,296.00
2022-09-24T03:28:53.720Z,357.73
2022-09-24T03:31:23.320Z,316.17
2022-09-24T03:33:51.839Z,346.73
2022-09-24T03:36:21.614Z,299.00
2022-09-24T03:38:52.619Z,318.07
2022-09-24T03:41:20.558Z,329.60
2022-09-24T03:43:48.508Z,354.13
2022-09-24T03:46:17.238Z,428.57
2022-09-24T03:48:47.236Z,255.97
2022-09-24T03:51:20.181Z,343.63
2022-09-24T03:53:49.019Z,372.17
2022-09-24T03:56:18.345Z,356.50
2022-09-24T03:58:47.614Z,325.47
2022-09-24T04:01:21.691Z,356.97
2022-09-24T04:03:50.415Z,369.40
2022-09-24T04:06:23.413Z,340.43
2022-09-24T04:08:54.045Z,358.97
2022-09-24T04:11:23.998Z,359.07
2022-09-24T04:13:52.440Z,390.57
2022-09-24T04:16:20.489Z,399.93
2022-09-24T04:18:48.812Z,403.47
2022-09-24T04:21:16.805Z,377.60
2022-09-24T04:23:44.890Z,388.17
2022-09-24T04:26:12.957Z,340.23
2022-09-24T04:28:42.393Z,285.07
2022-09-24T04:31:10.475Z,358.90
2022-09-24T04:33:38.457Z,378.07
2022-09-24T04:36:06.557Z,374.03
2022-09-24T04:38:34.703Z,335.77
2022-09-24T04:41:06.925Z,385.07
2022-09-24T04:43:36.846Z,416.40
2022-09-24T04:46:06.877Z,412.40
2022-09-24T04:48:38.379Z,449.20
2022-09-24T04:51:06.928Z,366.27
2022-09-24T04:53:36.721Z,377.97
2022-09-24T04:56:05.098Z,388.13
2022-09-24T04:58:33.321Z,439.53
2022-09-24T05:01:03.957Z,461.77
2022-09-24T05:03:33.329Z,422.70
2022-09-24T05:06:01.950Z,369.93
2022-09-24T05:08:30.010Z,369.23
2022-09-24T05:10:58.000Z,426.93
2022-09-24T05:13:26.213Z,376.73
2022-09-24T05:15:54.293Z,420.13
2022-09-24T05:18:22.498Z,410.87
2022-09-24T05:20:52.382Z,404.23
2022-09-24T05:23:20.470Z,439.33
2022-09-24T05:26:06.027Z,416.60
2022-09-24T05:28:35.289Z,362.60
2022-09-24T05:31:03.486Z,430.93
2022-09-24T05:33:31.637Z,491.37
2022-09-24T05:36:00.958Z,439.50
2022-09-24T05:38:29.960Z,444.00
2022-09-24T05:40:58.114Z,449.40
2022-09-24T05:43:27.749Z,390.37
2022-09-24T05:45:58.586Z,445.90
2022-09-24T05:48:26.949Z,412.70
2022-09-24T05:50:55.692Z,479.90
2022-09-24T05:53:25.621Z,498.50
2022-09-24T05:55:53.577Z,400.73
2022-09-24T05:58:21.611Z,442.27
2022-09-24T06:00:49.940Z,409.83
2022-09-24T06:03:19.739Z,416.50
2022-09-24T06:05:49.635Z,478.57
2022-09-24T06:08:18.119Z,417.87
2022-09-24T06:10:48.619Z,528.60
2022-09-24T06:13:18.469Z,508.23
2022-09-24T06:15:47.137Z,466.73
2022-09-24T06:18:15.284Z,442.63
2022-09-24T06:20:43.540Z,447.90
2022-09-24T06:23:11.951Z,509.10
2022-09-24T06:25:39.891Z,519.27
2022-09-24T06:28:09.340Z,455.77
2022-09-24T06:30:39.405Z,513.23
2022-09-24T06:33:09.791Z,544.23
2022-09-24T06:35:38.335Z,493.63
2022-09-24T06:38:07.275Z,622.10
2022-09-24T06:40:37.458Z,523.57
2022-09-24T06:43:06.684Z,474.50
2022-09-24T06:45:36.305Z,528.97
2022-09-24T06:48:05.894Z,532.63
2022-09-24T06:50:35.559Z,490.67
2022-09-24T06:53:06.427Z,491.40
2022-09-24T06:55:34.928Z,431.73
2022-09-24T06:58:04.573Z,468.37
2022-09-24T07:00:32.675Z,554.47
2022-09-24T07:03:02.195Z,484.07
2022-09-24T07:05:30.905Z,599.35
2022-09-24T07:07:58.961Z,541.13
2022-09-24T07:10:28.015Z,474.00
2022-09-24T07:12:56.137Z,440.40
2022-09-24T07:15:24.082Z,397.83
2022-09-24T07:17:56.088Z,434.10
2022-09-24T07:20:28.078Z,494.27
2022-09-24T07:22:56.281Z,427.33
2022-09-24T07:25:24.171Z,392.67
2022-09-24T07:27:52.067Z,414.17
2022-09-24T07:30:20.082Z,434.43
2022-09-24T07:32:50.583Z,719.40
2022-09-24T07:35:21.030Z,364.57
2022-09-24T07:37:50.402Z,242.53
2022-09-24T07:40:18.462Z,211.00
2022-09-24T07:42:49.432Z,201.20
2022-09-24T07:45:18.197Z,182.33
2022-09-24T07:47:46.152Z,157.33
2022-09-24T07:50:14.062Z,157.60
2022-09-24T07:52:41.951Z,172.93
2022-09-24T07:55:11.294Z,149.37
2022-09-24T07:57:39.809Z,154.53
2022-09-24T08:00:09.168Z,138.67
2022-09-24T08:02:40.031Z,139.10
2022-09-24T08:05:08.618Z,125.57
2022-09-24T08:07:36.590Z,123.87
2022-09-24T08:10:05.056Z,135.10
2022-09-24T08:12:34.590Z,119.73
2022-09-24T08:15:02.570Z,115.43
2022-09-24T08:17:30.451Z,116.73
2022-09-24T08:19:58.758Z,115.23
2022-09-24T08:22:26.681Z,116.17
2022-09-24T08:24:54.936Z,110.10
2022-09-24T08:27:24.112Z,116.50
2022-09-24T08:29:53.573Z,109.20
2022-09-24T08:32:21.488Z,116.57
2022-09-24T08:34:49.398Z,122.03
2022-09-24T08:37:17.237Z,110.93
2022-09-24T08:39:45.302Z,108.07
2022-09-24T08:42:20.347Z,105.47
2022-09-24T08:45:07.923Z,103.00
2022-09-24T08:47:38.975Z,101.50
2022-09-24T08:50:15.372Z,100.93
2022-09-24T08:53:00.985Z,97.17
2022-09-24T08:55:33.884Z,96.93
2022-09-24T08:58:09.859Z,97.73
2022-09-24T09:00:43.713Z,98.97
2022-09-24T09:03:18.636Z,381.50
2022-09-24T09:05:53.955Z,95.77
2022-09-24T09:11:23.207Z,91.47
2022-09-24T09:13:54.215Z,94.67
2022-09-24T09:16:24.933Z,92.87
2022-09-24T09:18:57.498Z,92.93
2022-09-24T09:21:29.822Z,89.80
2022-09-24T09:23:59.037Z,87.07
2022-09-24T09:26:27.294Z,88.30
2022-09-24T09:29:00.095Z,89.60
2022-09-24T09:31:36.821Z,89.17
2022-09-24T09:34:29.830Z,87.17
2022-09-24T09:37:07.529Z,83.63
2022-09-24T09:39:40.431Z,84.97
2022-09-24T09:42:26.496Z,82.00
2022-09-24T09:44:54.685Z,85.40
2022-09-24T09:47:26.452Z,80.80
2022-09-24T09:49:59.146Z,81.60
2022-09-24T09:52:29.842Z,84.80
2022-09-24T09:54:57.898Z,79.30
2022-09-24T09:57:26.432Z,79.07
2022-09-24T09:59:55.100Z,80.60
2022-09-24T10:02:25.759Z,77.20
2022-09-24T10:04:57.660Z,77.57
2022-09-24T10:07:25.788Z,85.17
2022-09-24T10:10:05.374Z,78.70
2022-09-24T10:12:33.280Z,79.07
2022-09-24T10:15:02.858Z,79.77
2022-09-24T10:17:35.684Z,80.43
2022-09-24T10:20:09.674Z,77.20
2022-09-24T10:22:39.346Z,76.30
2022-09-24T10:25:07.890Z,76.47
2022-09-24T10:27:37.765Z,80.87
2022-09-24T10:30:31.478Z,77.43
2022-09-24T10:33:00.312Z,78.97
2022-09-24T10:35:31.354Z,80.77
2022-09-24T10:38:01.241Z,78.37
2022-09-24T10:40:31.244Z,78.67
2022-09-24T10:43:01.373Z,81.60
2022-09-24T10:45:43.686Z,79.57
2022-09-24T10:48:18.857Z,77.33
2022-09-24T10:50:54.405Z,77.37
2022-09-24T10:53:31.850Z,84.00
2022-09-24T10:56:05.389Z,80.00
2022-09-24T10:59:00.762Z,78.37
2022-09-24T11:01:33.488Z,77.47
2022-09-24T11:04:20.959Z,79.83
2022-09-24T11:07:09.200Z,80.97
2022-09-24T11:09:43.849Z,84.60
2022-09-24T11:12:16.565Z,82.03
2022-09-24T11:14:56.544Z,81.83
2022-09-24T11:17:33.442Z,80.07
2022-09-24T11:20:17.632Z,78.77
2022-09-24T11:22:57.940Z,79.47
2022-09-24T11:25:32.891Z,77.40
2022-09-24T11:28:14.897Z,78.67
2022-09-24T11:30:48.811Z,78.57
2022-09-24T11:33:27.264Z,84.17
2022-09-24T11:36:06.548Z,82.60
2022-09-24T11:38:49.667Z,82.87
2022-09-24T11:41:27.922Z,83.27
2022-09-24T11:44:18.683Z,82.60
2022-09-24T11:46:56.638Z,80.80
2022-09-24T11:49:39.059Z,80.27
2022-09-24T11:52:10.431Z,79.87
2022-09-24T11:54:45.262Z,80.27
2022-09-24T11:57:17.156Z,81.13
2022-09-24T11:59:51.033Z,81.03
2022-09-24T12:02:23.825Z,81.90
2022-09-24T12:04:58.690Z,82.30
2022-09-24T12:07:31.539Z,84.83
2022-09-24T12:10:04.336Z,82.07
2022-09-24T12:12:34.598Z,81.47
2022-09-24T12:15:05.704Z,81.20
2022-09-24T12:17:37.494Z,82.37
2022-09-24T12:20:09.826Z,80.93
2022-09-24T12:22:39.396Z,81.00
2022-09-24T12:25:13.224Z,82.10
2022-09-24T12:27:41.253Z,81.03
2022-09-24T12:30:43.620Z,79.77
2022-09-24T12:33:16.088Z,81.43
2022-09-24T12:35:55.935Z,78.87
2022-09-24T12:38:26.767Z,76.47
2022-09-24T12:41:12.717Z,78.70
2022-09-24T12:43:43.764Z,78.07
2022-09-24T12:46:17.953Z,78.77
2022-09-24T12:48:46.974Z,78.90
2022-09-24T12:51:15.543Z,78.67
2022-09-24T12:53:45.059Z,78.03
2022-09-24T12:56:24.961Z,77.27
2022-09-24T12:58:53.324Z,77.70
2022-09-24T13:01:30.404Z,78.97
2022-09-24T13:04:06.324Z,77.57
2022-09-24T13:06:36.582Z,80.17
2022-09-24T13:09:25.647Z,78.90
2022-09-24T13:12:04.690Z,79.00
2022-09-24T13:14:33.842Z,83.60
2022-09-24T13:17:06.714Z,80.87
2022-09-24T13:19:40.973Z,80.30
2022-09-24T13:22:21.875Z,79.17
2022-09-24T13:24:51.751Z,81.77
2022-09-24T13:27:24.958Z,78.97
2022-09-24T13:30:06.970Z,82.00
2022-09-24T13:32:38.492Z,79.97
2022-09-24T13:35:12.333Z,81.67
2022-09-24T13:37:42.782Z,83.67
2022-09-24T13:40:19.495Z,79.37
2022-09-24T13:42:51.175Z,79.40
2022-09-24T13:45:21.548Z,79.47
2022-09-24T13:47:52.650Z,84.10
2022-09-24T13:50:23.718Z,84.17
2022-09-24T13:52:54.973Z,82.70
2022-09-24T13:55:24.357Z,80.37
2022-09-24T13:57:53.768Z,79.93
2022-09-24T14:00:24.458Z,81.67
2022-09-24T14:02:58.970Z,80.77
2022-09-24T14:05:27.579Z,87.60
2022-09-24T14:08:04.824Z,82.60
2022-09-24T14:10:33.037Z,83.57
2022-09-24T14:13:17.430Z,79.93
2022-09-24T14:15:56.223Z,80.30
2022-09-24T14:18:25.039Z,81.77
2022-09-24T14:20:57.832Z,79.67
2022-09-24T14:23:28.377Z,82.47
2022-09-24T14:25:56.984Z,78.10
2022-09-24T14:28:26.501Z,80.50
2022-09-24T14:30:56.295Z,82.17
2022-09-24T14:33:27.132Z,79.77
2022-09-24T14:35:56.383Z,78.57
2022-09-24T14:38:26.421Z,77.90
2022-09-24T14:40:56.979Z,79.17
2022-09-24T14:43:31.428Z,78.87
2022-09-24T14:46:04.421Z,78.90
2022-09-24T14:48:33.721Z,81.00
2022-09-24T14:51:02.089Z,79.67
2022-09-24T14:53:34.220Z,79.87
2022-09-24T14:56:03.504Z,77.33
2022-09-24T14:58:37.300Z,79.47
2022-09-24T15:01:08.194Z,77.30
2022-09-24T15:03:40.893Z,94.30
2022-09-24T15:06:19.357Z,84.17
2022-09-24T15:08:54.085Z,82.77
2022-09-24T15:11:27.708Z,77.37
2022-09-24T15:14:01.683Z,84.00
2022-09-24T15:16:32.027Z,82.20
2022-09-24T15:19:11.134Z,79.67
2022-09-24T15:21:39.040Z,78.37
2022-09-24T15:24:07.172Z,78.30
2022-09-24T15:26:37.322Z,80.27
2022-09-24T15:29:07.470Z,80.87
2022-09-24T15:31:35.473Z,80.23
2022-09-24T15:34:03.485Z,77.47
2022-09-24T15:36:31.415Z,77.87
2022-09-24T15:39:02.139Z,79.17
2022-09-24T15:41:30.031Z,79.80
2022-09-24T15:43:59.003Z,77.47
2022-09-24T15:46:28.336Z,80.50
2022-09-24T15:48:56.246Z,79.50
2022-09-24T15:51:24.600Z,79.73
2022-09-24T15:53:52.571Z,78.67
2022-09-24T15:56:20.473Z,79.40
2022-09-24T15:58:48.379Z,80.57
2022-09-24T16:01:19.218Z,79.20
2022-09-24T16:03:48.637Z,78.10
2022-09-24T16:06:16.604Z,81.23
2022-09-24T16:08:44.523Z,78.93
2022-09-24T16:11:12.453Z,78.20
2022-09-24T16:13:40.451Z,78.47
2022-09-24T16:16:08.974Z,79.00
2022-09-24T16:18:39.766Z,81.53
2022-09-24T16:21:09.551Z,83.00
2022-09-24T16:23:37.480Z,81.03
2022-09-24T16:26:05.708Z,82.27
2022-09-24T16:28:33.640Z,85.60
2022-09-24T16:31:06.342Z,79.33
2022-09-24T16:33:38.852Z,104.93
2022-09-24T16:36:07.294Z,82.83
2022-09-24T16:38:37.412Z,83.47
2022-09-24T16:41:06.126Z,84.20
2022-09-24T16:43:34.231Z,84.33
2022-09-24T16:46:03.656Z,82.53
2022-09-24T16:48:31.933Z,84.43
2022-09-24T16:51:04.256Z,82.37
2022-09-24T16:53:34.143Z,85.73
2022-09-24T16:56:08.396Z,84.53
2022-09-24T16:58:36.613Z,84.00
2022-09-24T17:01:06.071Z,83.90
2022-09-24T17:03:34.223Z,86.47
2022-09-24T17:06:02.473Z,80.97
2022-09-24T17:08:45.947Z,82.73
2022-09-24T17:11:16.300Z,86.20
2022-09-24T17:13:44.500Z,86.70
2022-09-24T17:16:12.522Z,84.53
2022-09-24T17:18:40.618Z,81.47
2022-09-24T17:21:11.163Z,84.47
2022-09-24T17:23:39.889Z,83.60
2022-09-24T17:26:11.504Z,85.90
2022-09-24T17:28:42.125Z,83.27
2022-09-24T17:31:11.159Z,84.87
2022-09-24T17:33:43.267Z,84.23
2022-09-24T17:36:14.247Z,85.47
2022-09-24T17:38:43.000Z,83.07
2022-09-24T17:41:13.131Z,86.60
2022-09-24T17:43:43.072Z,85.80
2022-09-24T17:46:14.418Z,85.37
2022-09-24T17:48:44.508Z,85.87
2022-09-24T17:51:15.032Z,85.03
2022-09-24T17:53:43.238Z,89.00
2022-09-24T17:56:12.632Z,93.03
2022-09-24T17:58:43.775Z,93.60
2022-09-24T18:01:13.580Z,111.87
2022-09-24T18:03:42.044Z,95.30
2022-09-24T18:06:13.681Z,89.40
2022-09-24T18:08:42.988Z,101.23
2022-09-24T18:11:12.664Z,96.63
2022-09-24T18:13:42.315Z,92.23
2022-09-24T18:16:12.662Z,94.87
2022-09-24T18:18:41.021Z,97.27
2022-09-24T18:21:11.093Z,103.40
2022-09-24T18:23:39.463Z,97.30
2022-09-24T18:26:10.537Z,95.97
2022-09-24T18:28:39.741Z,94.43
2022-09-24T18:31:10.391Z,95.37
2022-09-24T18:33:40.137Z,102.17
2022-09-24T18:36:10.932Z,109.67
2022-09-24T18:38:39.220Z,106.17
2022-09-24T18:41:09.449Z,111.63
2022-09-24T18:43:37.541Z,103.33
2022-09-24T18:46:31.750Z,110.37
2022-09-24T18:49:00.645Z,104.03
2022-09-24T18:51:29.738Z,101.47
2022-09-24T18:53:59.064Z,107.37
2022-09-24T18:56:27.911Z,106.17
2022-09-24T18:58:56.990Z,107.27
2022-09-24T19:01:25.378Z,97.83
2022-09-24T19:03:55.074Z,98.77
2022-09-24T19:06:23.167Z,98.33
2022-09-24T19:08:51.109Z,93.67
2022-09-24T19:11:19.104Z,91.93
2022-09-24T19:13:49.920Z,93.17
2022-09-24T19:16:19.085Z,93.63
2022-09-24T19:18:47.226Z,93.13
2022-09-24T19:21:16.507Z,89.27
2022-09-24T19:23:46.328Z,91.07
2022-09-24T19:26:16.140Z,92.27
2022-09-24T19:28:45.386Z,92.43
2022-09-24T19:31:14.719Z,97.33
2022-09-24T19:33:42.759Z,96.10
2022-09-24T19:36:11.814Z,93.43
2022-09-24T19:38:42.286Z,96.07
2022-09-24T19:41:13.419Z,99.40
2022-09-24T19:43:43.650Z,92.00
2022-09-24T19:46:14.578Z,90.87
2022-09-24T19:48:44.203Z,96.97
2022-09-24T19:51:15.115Z,95.97
2022-09-24T19:53:44.688Z,99.37
2022-09-24T19:56:13.013Z,97.37
2022-09-24T19:58:41.271Z,98.47
2022-09-24T20:01:13.684Z,98.10
2022-09-24T20:03:44.865Z,98.00
2022-09-24T20:06:18.110Z,94.70
2022-09-24T20:08:48.675Z,96.37
2022-09-24T20:11:20.645Z,94.70
2022-09-24T20:13:48.982Z,94.13
2022-09-24T20:16:19.688Z,93.80
2022-09-24T20:18:48.164Z,96.97
2022-09-24T20:21:18.342Z,96.27
2022-09-24T20:23:48.327Z,98.43
2022-09-24T20:26:34.938Z,94.87
2022-09-24T20:29:03.602Z,98.80
2022-09-24T20:31:31.663Z,99.93
2022-09-24T20:34:00.880Z,100.80
2022-09-24T20:36:29.060Z,94.10
2022-09-24T20:38:58.840Z,96.50
2022-09-24T20:41:27.231Z,98.37
2022-09-24T20:43:56.390Z,102.60
2022-09-24T20:46:25.501Z,100.20
2022-09-24T20:48:53.943Z,100.33
2022-09-24T20:51:22.765Z,92.13
2022-09-24T20:53:51.101Z,97.47
2022-09-24T20:56:21.158Z,96.70
2022-09-24T20:58:50.299Z,100.87
2022-09-24T21:01:18.683Z,100.43
2022-09-24T21:03:49.874Z,102.80
2022-09-24T21:06:20.735Z,100.47
2022-09-24T21:08:48.725Z,98.40
2022-09-24T21:11:19.038Z,104.70
2022-09-24T21:13:50.210Z,104.07
2022-09-24T21:16:19.836Z,105.57
2022-09-24T21:18:48.555Z,100.23
2022-09-24T21:21:17.871Z,100.17
2022-09-24T21:23:47.008Z,100.50
2022-09-24T21:26:16.707Z,102.17
2022-09-24T21:28:45.311Z,101.23
2022-09-24T21:31:15.330Z,107.17
2022-09-24T21:33:46.287Z,102.23
2022-09-24T21:36:18.611Z,104.30
2022-09-24T21:38:47.074Z,102.63
2022-09-24T21:41:15.013Z,107.47
2022-09-24T21:43:42.944Z,104.43
2022-09-24T21:46:11.139Z,106.17
2022-09-24T21:48:40.518Z,102.80
2022-09-24T21:51:09.886Z,104.37
2022-09-24T21:53:38.831Z,100.83
2022-09-24T21:56:07.396Z,105.93
2022-09-24T21:58:35.354Z,100.77
2022-09-24T22:01:05.285Z,102.37
2022-09-24T22:03:33.499Z,103.07
2022-09-24T22:06:04.926Z,100.87
2022-09-24T22:08:33.018Z,107.57
2022-09-24T22:11:02.512Z,103.93
2022-09-24T22:13:31.014Z,103.53
2022-09-24T22:15:59.857Z,105.17
2022-09-24T22:18:28.739Z,102.97
2022-09-24T22:20:57.482Z,106.00
2022-09-24T22:23:26.881Z,100.23
2022-09-24T22:25:56.273Z,106.07
2022-09-24T22:28:25.257Z,107.00
2022-09-24T22:30:53.949Z,105.23
2022-09-24T22:33:40.027Z,101.60
2022-09-24T22:36:08.341Z,102.63
2022-09-24T22:38:37.876Z,104.90
2022-09-24T22:41:10.780Z,106.97
2022-09-24T22:43:39.168Z,107.67
2022-09-24T22:46:09.195Z,109.40
2022-09-24T22:48:37.282Z,112.10
2022-09-24T22:51:06.463Z,105.20
2022-09-24T22:53:35.121Z,108.77
2022-09-24T22:56:05.587Z,111.17
2022-09-24T22:58:33.977Z,110.90
2022-09-24T23:01:08.633Z,104.83
2022-09-24T23:03:36.903Z,108.63
2022-09-24T23:06:06.133Z,107.17
2022-09-24T23:08:34.677Z,110.47
2022-09-24T23:11:08.944Z,109.27
2022-09-24T23:13:38.112Z,110.43
2022-09-24T23:16:11.668Z,108.93
2022-09-24T23:18:39.946Z,104.23
2022-09-24T23:21:09.068Z,106.97
2022-09-24T23:23:37.215Z,104.10
2022-09-24T23:26:07.123Z,115.37
2022-09-24T23:28:37.158Z,109.07
2022-09-24T23:31:05.571Z,108.47
2022-09-24T23:33:34.396Z,108.93
2022-09-24T23:36:03.150Z,105.50
2022-09-24T23:38:31.285Z,109.83
2022-09-24T23:41:00.728Z,113.77
2022-09-24T23:43:29.245Z,112.07
2022-09-24T23:45:58.699Z,107.67
2022-09-24T23:48:27.148Z,107.97
2022-09-24T23:50:55.533Z,106.13
2022-09-24T23:53:23.541Z,114.20
2022-09-24T23:55:53.919Z,109.27
2022-09-24T23:58:25.195Z,110.63
